createdAt,value
2019-02-05T00:01:24.005Z,27.03
2019-02-05T00:03:53.144Z,27.01
2019-02-05T00:06:22.253Z,27.00
2019-02-05T00:08:50.947Z,26.97
2019-02-05T00:11:19.712Z,26.97
2019-02-05T00:13:48.512Z,26.93
2019-02-05T00:16:17.243Z,26.91
2019-02-05T00:18:45.932Z,26.90
2019-02-05T00:21:15.040Z,26.87
2019-02-05T00:23:43.756Z,26.87
2019-02-05T00:26:12.584Z,26.85
2019-02-05T00:28:41.296Z,26.83
2019-02-05T00:31:09.992Z,26.81
2019-02-05T00:33:38.688Z,26.79
2019-02-05T00:36:07.408Z,26.79
2019-02-05T00:38:36.167Z,26.77
2019-02-05T00:41:04.872Z,26.74
2019-02-05T00:43:33.583Z,26.71
2019-02-05T00:46:02.462Z,26.70
2019-02-05T00:48:31.231Z,26.67
2019-02-05T00:51:00.265Z,26.66
2019-02-05T00:53:29.068Z,26.63
2019-02-05T00:55:57.782Z,26.61
2019-02-05T00:58:26.918Z,26.61
2019-02-05T01:00:55.641Z,26.61
2019-02-05T01:03:24.374Z,26.57
2019-02-05T01:05:53.074Z,26.54
2019-02-05T01:08:22.169Z,26.55
2019-02-05T01:10:50.861Z,26.52
2019-02-05T01:13:19.926Z,26.50
2019-02-05T01:15:48.627Z,26.50
2019-02-05T01:18:17.613Z,26.48
2019-02-05T01:20:46.877Z,26.46
2019-02-05T01:23:15.684Z,26.42
2019-02-05T01:25:44.380Z,26.41
2019-02-05T01:28:13.073Z,26.40
2019-02-05T01:30:41.791Z,26.40
2019-02-05T01:33:10.578Z,26.39
2019-02-05T01:35:39.369Z,26.39
2019-02-05T01:38:08.345Z,26.39
2019-02-05T01:40:37.030Z,26.40
2019-02-05T01:43:05.741Z,26.41
2019-02-05T01:45:34.438Z,26.39
2019-02-05T01:48:03.175Z,26.40
2019-02-05T01:50:31.954Z,26.39
2019-02-05T01:53:01.240Z,26.37
2019-02-05T01:55:30.006Z,26.34
2019-02-05T01:57:58.736Z,26.34
2019-02-05T02:00:30.763Z,26.32
2019-02-05T02:03:00.287Z,26.30
2019-02-05T02:05:29.009Z,26.29
2019-02-05T02:07:58.093Z,26.27
2019-02-05T02:10:28.053Z,26.25
2019-02-05T02:12:56.794Z,26.22
2019-02-05T02:15:25.502Z,26.21
2019-02-05T02:17:54.233Z,26.20
2019-02-05T02:20:22.994Z,26.17
2019-02-05T02:22:51.731Z,26.15
2019-02-05T02:25:20.467Z,26.13
2019-02-05T02:27:49.735Z,26.11
2019-02-05T02:30:30.901Z,26.09
2019-02-05T02:32:59.982Z,26.07
2019-02-05T02:35:28.702Z,26.06
2019-02-05T02:37:57.447Z,26.05
2019-02-05T02:40:26.191Z,26.02
2019-02-05T02:42:54.912Z,26.01
2019-02-05T02:45:24.001Z,25.99
2019-02-05T02:47:52.921Z,25.99
2019-02-05T02:50:22.294Z,25.95
2019-02-05T02:52:51.274Z,25.94
2019-02-05T02:55:20.025Z,25.92
2019-02-05T02:57:48.813Z,25.88
2019-02-05T03:00:18.926Z,25.88
2019-02-05T03:02:47.734Z,25.85
2019-02-05T03:05:18.903Z,25.83
2019-02-05T03:07:48.108Z,25.80
2019-02-05T03:10:19.253Z,25.80
2019-02-05T03:12:47.899Z,25.77
2019-02-05T03:15:16.841Z,25.75
2019-02-05T03:17:45.662Z,25.73
2019-02-05T03:20:14.413Z,25.71
2019-02-05T03:22:45.365Z,25.69
2019-02-05T03:25:14.094Z,25.66
2019-02-05T03:27:42.983Z,25.62
2019-02-05T03:30:17.887Z,25.60
2019-02-05T03:32:47.043Z,25.57
2019-02-05T03:35:16.643Z,25.56
2019-02-05T03:37:45.355Z,25.54
2019-02-05T03:41:02.026Z,25.53
2019-02-05T03:43:30.883Z,25.52
2019-02-05T03:46:00.269Z,25.47
2019-02-05T03:48:28.964Z,25.43
2019-02-05T03:51:06.355Z,25.38
2019-02-05T03:53:35.881Z,25.35
2019-02-05T03:56:46.707Z,25.35
2019-02-05T03:59:48.204Z,25.32
2019-02-05T04:02:58.644Z,25.28
2019-02-05T04:05:49.446Z,25.25
2019-02-05T04:08:53.663Z,25.21
2019-02-05T04:11:35.300Z,25.16
2019-02-05T04:14:42.596Z,25.15
2019-02-05T04:17:59.439Z,25.16
2019-02-05T04:20:55.433Z,25.13
2019-02-05T04:24:00.249Z,25.12
2019-02-05T04:27:05.602Z,25.10
2019-02-05T04:30:05.945Z,25.09
2019-02-05T04:33:06.524Z,25.10
2019-02-05T04:36:18.710Z,25.09
2019-02-05T04:39:16.426Z,25.04
2019-02-05T04:42:29.710Z,25.00
2019-02-05T04:45:17.326Z,24.95
2019-02-05T04:48:13.640Z,24.92
2019-02-05T04:51:03.561Z,24.87
2019-02-05T04:54:04.003Z,24.83
2019-02-05T04:56:56.597Z,24.84
2019-02-05T05:00:06.780Z,24.84
2019-02-05T05:03:33.859Z,24.88
2019-02-05T05:06:36.237Z,24.95
2019-02-05T05:09:36.850Z,24.97
2019-02-05T05:12:05.564Z,24.99
2019-02-05T05:14:34.273Z,24.99
2019-02-05T05:17:03.687Z,25.00
2019-02-05T05:19:33.154Z,25.00
2019-02-05T05:22:01.899Z,25.02
2019-02-05T05:24:30.577Z,25.01
2019-02-05T05:26:59.283Z,24.99
2019-02-05T05:29:27.971Z,25.02
2019-02-05T05:31:56.857Z,24.99
2019-02-05T05:34:25.566Z,25.02
2019-02-05T05:36:53.044Z,25.01
2019-02-05T05:39:21.756Z,25.00
2019-02-05T05:41:50.479Z,24.96
2019-02-05T05:44:19.182Z,25.02
2019-02-05T05:46:47.897Z,25.02
2019-02-05T05:49:16.615Z,25.00
2019-02-05T05:51:45.339Z,24.95
2019-02-05T05:54:14.351Z,24.90
2019-02-05T05:56:43.063Z,24.86
2019-02-05T05:59:11.756Z,24.86
2019-02-05T06:01:43.458Z,24.81
2019-02-05T06:04:12.542Z,24.70
2019-02-05T06:06:41.554Z,24.59
2019-02-05T06:09:10.249Z,24.48
2019-02-05T06:11:39.140Z,24.43
2019-02-05T06:14:07.905Z,24.42
2019-02-05T06:16:36.756Z,24.45
2019-02-05T06:19:05.467Z,24.46
2019-02-05T06:21:34.464Z,24.44
2019-02-05T06:24:03.444Z,24.44
2019-02-05T06:26:32.147Z,24.42
2019-02-05T06:29:00.855Z,24.41
2019-02-05T06:31:29.940Z,24.37
2019-02-05T06:33:58.635Z,24.35
2019-02-05T06:36:27.351Z,24.37
2019-02-05T06:38:56.057Z,24.38
2019-02-05T06:41:24.785Z,24.38
2019-02-05T06:43:53.811Z,24.36
2019-02-05T06:46:22.521Z,24.36
2019-02-05T06:48:51.214Z,24.37
2019-02-05T06:51:20.243Z,24.37
2019-02-05T06:53:49.363Z,24.36
2019-02-05T06:56:18.425Z,24.34
2019-02-05T06:58:47.432Z,24.34
2019-02-05T07:01:16.132Z,24.32
2019-02-05T07:03:44.840Z,24.30
2019-02-05T07:06:13.610Z,24.29
2019-02-05T07:08:42.672Z,24.27
2019-02-05T07:11:11.528Z,24.25
2019-02-05T07:13:40.986Z,24.26
2019-02-05T07:16:09.698Z,24.22
2019-02-05T07:18:38.528Z,24.20
2019-02-05T07:21:07.226Z,24.20
2019-02-05T07:23:35.983Z,24.18
2019-02-05T07:26:04.655Z,24.18
2019-02-05T07:28:33.368Z,24.17
2019-02-05T07:31:02.352Z,24.15
2019-02-05T07:33:31.061Z,24.14
2019-02-05T07:35:59.865Z,24.14
2019-02-05T07:38:28.602Z,24.13
2019-02-05T07:40:57.293Z,24.12
2019-02-05T07:43:26.007Z,24.12
2019-02-05T07:45:54.752Z,24.11
2019-02-05T07:48:23.729Z,24.09
2019-02-05T07:50:52.423Z,24.05
2019-02-05T07:53:21.139Z,23.99
2019-02-05T07:55:49.860Z,23.95
2019-02-05T07:58:18.549Z,23.90
2019-02-05T08:00:47.247Z,23.89
2019-02-05T08:03:15.952Z,23.86
2019-02-05T08:05:44.638Z,23.85
2019-02-05T08:08:13.899Z,23.83
2019-02-05T08:10:42.626Z,23.82
2019-02-05T08:13:11.314Z,23.81
2019-02-05T08:15:40.104Z,23.79
2019-02-05T08:18:08.832Z,23.77
2019-02-05T08:20:37.552Z,23.75
2019-02-05T08:23:06.564Z,23.73
2019-02-05T08:25:35.509Z,23.72
2019-02-05T08:28:04.426Z,23.71
2019-02-05T08:30:35.933Z,23.70
2019-02-05T08:33:04.665Z,23.67
2019-02-05T08:35:33.385Z,23.66
2019-02-05T08:38:02.093Z,23.66
2019-02-05T08:40:30.797Z,23.67
2019-02-05T08:42:59.500Z,23.68
2019-02-05T08:45:29.045Z,23.68
2019-02-05T08:47:57.761Z,23.67
2019-02-05T08:50:27.578Z,23.68
2019-02-05T08:52:56.273Z,23.66
2019-02-05T08:55:25.047Z,23.65
2019-02-05T08:57:55.018Z,23.64
2019-02-05T09:00:29.482Z,23.64
2019-02-05T09:02:58.892Z,23.59
2019-02-05T09:05:27.613Z,23.53
2019-02-05T09:07:56.296Z,23.52
2019-02-05T09:10:27.521Z,23.51
2019-02-05T09:12:56.467Z,23.52
2019-02-05T09:15:29.585Z,23.52
2019-02-05T09:17:55.666Z,23.52
2019-02-05T09:20:24.386Z,23.51
2019-02-05T09:22:53.160Z,23.53
2019-02-05T09:25:22.149Z,23.51
2019-02-05T09:27:50.843Z,23.45
2019-02-05T09:30:21.493Z,23.42
2019-02-05T09:32:51.802Z,23.37
2019-02-05T09:35:20.563Z,23.36
2019-02-05T09:37:49.674Z,23.35
2019-02-05T09:40:23.424Z,23.33
2019-02-05T09:42:52.252Z,23.34
2019-02-05T09:45:21.173Z,23.33
2019-02-05T09:47:50.748Z,23.33
2019-02-05T09:50:19.507Z,23.34
2019-02-05T09:52:48.225Z,23.29
2019-02-05T09:55:16.971Z,23.29
2019-02-05T09:57:45.697Z,23.32
2019-02-05T10:00:17.410Z,23.33
2019-02-05T10:02:46.109Z,23.33
2019-02-05T10:05:16.401Z,23.36
2019-02-05T10:07:45.174Z,23.36
2019-02-05T10:10:15.151Z,23.34
2019-02-05T10:12:46.908Z,23.34
2019-02-05T10:15:19.424Z,23.33
2019-02-05T10:17:48.145Z,23.33
2019-02-05T10:20:17.391Z,23.33
2019-02-05T10:22:46.156Z,23.34
2019-02-05T10:25:15.132Z,23.31
2019-02-05T10:27:43.891Z,23.31
2019-02-05T10:30:16.726Z,23.30
2019-02-05T10:32:46.073Z,23.29
2019-02-05T10:35:14.810Z,23.29
2019-02-05T10:37:43.537Z,23.25
2019-02-05T10:40:12.329Z,23.24
2019-02-05T10:42:43.944Z,23.23
2019-02-05T10:45:12.086Z,23.23
2019-02-05T10:47:40.988Z,23.21
2019-02-05T10:50:11.281Z,23.19
2019-02-05T10:52:40.480Z,23.20
2019-02-05T10:55:11.193Z,23.19
2019-02-05T10:57:40.045Z,23.17
2019-02-05T11:00:15.126Z,23.15
2019-02-05T11:02:44.211Z,23.13
2019-02-05T11:05:15.172Z,23.11
2019-02-05T11:07:44.204Z,23.10
2019-02-05T11:10:13.522Z,23.09
2019-02-05T11:12:42.204Z,23.06
2019-02-05T11:15:13.332Z,23.06
2019-02-05T11:17:42.298Z,23.06
2019-02-05T11:20:14.145Z,23.03
2019-02-05T11:22:43.132Z,23.02
2019-02-05T11:25:11.962Z,22.99
2019-02-05T11:27:40.755Z,22.96
2019-02-05T11:30:20.285Z,22.95
2019-02-05T11:32:44.467Z,22.95
2019-02-05T11:35:13.252Z,22.91
2019-02-05T11:37:41.976Z,22.90
2019-02-05T11:40:13.125Z,22.88
2019-02-05T11:42:41.851Z,22.87
2019-02-05T11:45:12.110Z,22.86
2019-02-05T11:47:40.859Z,22.86
2019-02-05T11:50:11.053Z,22.85
2019-02-05T11:52:39.739Z,22.86
2019-02-05T11:55:10.975Z,22.86
2019-02-05T11:57:39.707Z,22.84
2019-02-05T12:00:12.205Z,22.85
2019-02-05T12:02:40.995Z,22.83
2019-02-05T12:05:09.756Z,22.83
2019-02-05T12:07:38.862Z,22.82
2019-02-05T12:10:09.937Z,22.82
2019-02-05T12:12:38.874Z,22.81
2019-02-05T12:15:08.885Z,22.78
2019-02-05T12:17:37.673Z,22.78
2019-02-05T12:20:08.611Z,22.77
2019-02-05T12:22:37.340Z,22.74
2019-02-05T12:25:08.629Z,22.74
2019-02-05T12:27:38.090Z,22.74
2019-02-05T12:30:10.698Z,22.71
2019-02-05T12:32:39.411Z,22.67
2019-02-05T12:35:08.450Z,22.65
2019-02-05T12:37:37.141Z,22.65
2019-02-05T12:40:06.887Z,22.68
2019-02-05T12:42:35.984Z,22.68
2019-02-05T12:45:06.499Z,22.66
2019-02-05T12:47:35.219Z,22.68
2019-02-05T12:50:04.678Z,22.66
2019-02-05T12:52:33.754Z,22.65
2019-02-05T12:55:12.692Z,22.64
2019-02-05T12:57:33.212Z,22.59
2019-02-05T13:00:05.705Z,22.55
2019-02-05T13:02:34.399Z,22.54
2019-02-05T13:05:03.773Z,22.54
2019-02-05T13:07:32.484Z,22.50
2019-02-05T13:10:01.670Z,22.49
2019-02-05T13:12:30.562Z,22.47
2019-02-05T13:15:00.459Z,22.47
2019-02-05T13:17:29.201Z,22.46
2019-02-05T13:19:57.975Z,22.43
2019-02-05T13:22:26.724Z,22.40
2019-02-05T13:24:55.467Z,22.40
2019-02-05T13:27:24.181Z,22.38
2019-02-05T13:29:53.239Z,22.37
2019-02-05T13:32:21.947Z,22.37
2019-02-05T13:34:50.673Z,22.38
2019-02-05T13:37:19.552Z,22.37
2019-02-05T13:39:48.276Z,22.34
2019-02-05T13:42:17.076Z,22.33
2019-02-05T13:44:46.201Z,22.34
2019-02-05T13:47:17.746Z,22.32
2019-02-05T13:49:46.836Z,22.31
2019-02-05T13:52:15.943Z,22.28
2019-02-05T13:54:44.653Z,22.28
2019-02-05T13:57:13.370Z,22.27
2019-02-05T13:59:42.315Z,22.26
2019-02-05T14:02:11.055Z,22.27
2019-02-05T14:04:39.883Z,22.16
2019-02-05T14:07:08.796Z,22.24
2019-02-05T14:09:37.509Z,22.24
2019-02-05T14:12:06.237Z,22.24
2019-02-05T14:14:35.250Z,22.24
2019-02-05T14:17:03.977Z,22.23
2019-02-05T14:19:32.934Z,22.23
2019-02-05T14:22:01.617Z,22.23
2019-02-05T14:24:30.244Z,22.24
2019-02-05T14:26:59.093Z,22.25
2019-02-05T14:29:28.115Z,22.25
2019-02-05T14:31:56.939Z,22.24
2019-02-05T14:34:25.618Z,22.24
2019-02-05T14:36:54.219Z,22.25
2019-02-05T14:39:23.344Z,22.22
2019-02-05T14:41:51.996Z,22.23
2019-02-05T14:44:20.587Z,22.23
2019-02-05T14:46:49.737Z,22.22
2019-02-05T14:49:18.506Z,22.21
2019-02-05T14:51:47.525Z,22.21
2019-02-05T14:54:16.239Z,22.22
2019-02-05T14:56:44.903Z,22.22
2019-02-05T14:59:13.552Z,22.21
2019-02-05T15:01:43.425Z,22.22
2019-02-05T15:04:12.209Z,22.21
2019-02-05T15:06:40.822Z,22.19
2019-02-05T15:09:09.539Z,22.19
2019-02-05T15:11:38.166Z,22.19
2019-02-05T15:14:06.883Z,22.20
2019-02-05T15:16:35.535Z,22.20
2019-02-05T15:19:17.145Z,22.17
2019-02-05T15:21:45.855Z,22.15
2019-02-05T15:24:14.495Z,22.13
2019-02-05T15:26:43.138Z,22.09
2019-02-05T15:29:12.072Z,22.08
2019-02-05T15:31:40.720Z,22.09
2019-02-05T15:34:22.150Z,22.09
2019-02-05T15:36:51.527Z,22.06
2019-02-05T15:39:20.251Z,22.06
2019-02-05T15:41:48.899Z,22.06
2019-02-05T15:44:17.530Z,22.04
2019-02-05T15:46:46.207Z,22.04
2019-02-05T15:49:14.814Z,22.04
2019-02-05T15:51:43.709Z,22.04
2019-02-05T15:54:12.331Z,22.02
2019-02-05T15:56:41.049Z,22.00
2019-02-05T15:59:10.050Z,22.00
2019-02-05T16:01:38.713Z,21.99
2019-02-05T16:04:08.128Z,21.98
2019-02-05T16:06:36.815Z,21.97
2019-02-05T16:09:08.245Z,21.95
2019-02-05T16:11:36.997Z,21.94
2019-02-05T16:14:06.027Z,21.95
2019-02-05T16:16:34.673Z,21.91
2019-02-05T16:19:03.466Z,21.91
2019-02-05T16:21:32.276Z,21.89
2019-02-05T16:24:00.972Z,21.88
2019-02-05T16:26:29.722Z,21.86
2019-02-05T16:28:58.354Z,21.37
2019-02-05T16:31:28.011Z,21.84
2019-02-05T16:33:56.745Z,21.82
2019-02-05T16:36:25.421Z,21.82
2019-02-05T16:38:55.797Z,21.82
2019-02-05T16:41:24.467Z,21.76
2019-02-05T16:43:53.132Z,21.62
2019-02-05T16:46:21.945Z,21.43
2019-02-05T16:48:50.686Z,21.23
2019-02-05T16:51:19.342Z,21.18
2019-02-05T16:53:48.024Z,21.29
2019-02-05T16:56:17.947Z,21.29
2019-02-05T16:58:46.789Z,21.50
2019-02-05T17:01:15.839Z,21.77
2019-02-05T17:03:44.509Z,22.04
2019-02-05T17:06:14.881Z,22.37
2019-02-05T17:08:43.647Z,22.64
2019-02-05T17:11:12.305Z,22.82
2019-02-05T17:13:40.948Z,22.95
2019-02-05T17:16:09.850Z,23.05
2019-02-05T17:18:38.769Z,23.06
2019-02-05T17:21:07.388Z,23.08
2019-02-05T17:23:36.025Z,23.11
2019-02-05T17:26:04.927Z,23.15
2019-02-05T17:28:33.537Z,23.26
2019-02-05T17:31:02.185Z,23.40
2019-02-05T17:33:30.966Z,23.51
2019-02-05T17:36:02.657Z,23.59
2019-02-05T17:38:31.278Z,23.69
2019-02-05T17:40:59.958Z,23.68
2019-02-05T17:43:29.131Z,23.73
2019-02-05T17:45:57.854Z,23.82
2019-02-05T17:48:26.696Z,23.98
2019-02-05T17:50:55.459Z,24.17
2019-02-05T17:53:24.226Z,24.36
2019-02-05T17:55:53.182Z,24.48
2019-02-05T17:58:23.591Z,24.53
2019-02-05T18:00:56.206Z,24.50
2019-02-05T18:03:24.855Z,24.46
2019-02-05T18:05:54.159Z,24.46
2019-02-05T18:08:22.889Z,24.49
2019-02-05T18:10:51.538Z,24.54
2019-02-05T18:13:20.453Z,24.63
2019-02-05T18:15:49.755Z,24.72
2019-02-05T18:18:18.796Z,24.80
2019-02-05T18:20:48.136Z,24.88
2019-02-05T18:23:16.842Z,24.94
2019-02-05T18:25:45.462Z,25.01
2019-02-05T18:28:14.073Z,25.08
2019-02-05T18:30:42.661Z,25.13
2019-02-05T18:33:11.723Z,25.20
2019-02-05T18:35:40.341Z,25.27
2019-02-05T18:38:11.368Z,25.30
2019-02-05T18:40:39.936Z,25.33
2019-02-05T18:43:08.528Z,25.37
2019-02-05T18:45:37.516Z,25.39
2019-02-05T18:48:06.499Z,25.41
2019-02-05T18:50:35.126Z,25.41
2019-02-05T18:53:03.750Z,25.41
2019-02-05T18:55:32.730Z,25.44
2019-02-05T18:58:08.924Z,25.44
2019-02-05T19:00:33.687Z,25.47
2019-02-05T19:03:02.314Z,25.51
2019-02-05T19:05:31.172Z,25.52
2019-02-05T19:08:00.051Z,25.54
2019-02-05T19:10:28.731Z,25.56
2019-02-05T19:12:57.349Z,25.60
2019-02-05T19:15:30.626Z,25.63
2019-02-05T19:17:59.235Z,25.66
2019-02-05T19:20:29.422Z,25.68
2019-02-05T19:22:58.020Z,25.71
2019-02-05T19:25:43.370Z,25.71
2019-02-05T19:28:18.989Z,25.72
2019-02-05T19:30:48.477Z,25.74
2019-02-05T19:33:26.763Z,25.73
2019-02-05T19:35:47.850Z,25.75
2019-02-05T19:38:16.472Z,25.74
2019-02-05T19:40:45.096Z,25.73
2019-02-05T19:43:13.854Z,25.72
2019-02-05T19:45:55.047Z,25.74
2019-02-05T19:48:45.574Z,25.74
2019-02-05T19:51:16.143Z,25.74
2019-02-05T19:53:44.611Z,25.74
2019-02-05T19:56:14.618Z,25.72
2019-02-05T19:58:43.844Z,25.72
2019-02-05T20:01:13.041Z,25.72
2019-02-05T20:03:42.037Z,25.72
2019-02-05T20:06:12.925Z,25.71
2019-02-05T20:08:42.701Z,25.72
2019-02-05T20:11:11.886Z,25.71
2019-02-05T20:13:41.496Z,25.73
2019-02-05T20:16:10.239Z,25.71
2019-02-05T20:18:39.210Z,25.69
2019-02-05T20:21:08.004Z,25.69
2019-02-05T20:23:36.699Z,25.69
2019-02-05T20:26:05.345Z,25.71
2019-02-05T20:28:35.099Z,25.72
2019-02-05T20:31:03.922Z,25.73
2019-02-05T20:33:32.602Z,25.74
2019-02-05T20:36:01.430Z,25.30
2019-02-05T20:38:30.092Z,25.77
2019-02-05T20:40:58.813Z,25.78
2019-02-05T20:43:27.519Z,25.77
2019-02-05T20:45:56.995Z,25.76
2019-02-05T20:48:25.883Z,25.76
2019-02-05T20:50:54.778Z,25.77
2019-02-05T20:53:23.889Z,25.79
2019-02-05T20:55:53.006Z,25.79
2019-02-05T20:58:21.689Z,25.80
2019-02-05T21:00:50.586Z,25.81
2019-02-05T21:03:19.815Z,25.83
2019-02-05T21:05:48.782Z,25.83
2019-02-05T21:08:17.936Z,25.84
2019-02-05T21:10:46.578Z,25.84
2019-02-05T21:13:15.871Z,25.83
2019-02-05T21:15:44.620Z,25.85
2019-02-05T21:18:13.366Z,25.86
2019-02-05T21:20:42.412Z,25.86
2019-02-05T21:23:11.034Z,25.83
2019-02-05T21:25:39.841Z,25.82
2019-02-05T21:28:08.512Z,25.80
2019-02-05T21:30:37.160Z,25.80
2019-02-05T21:33:05.816Z,25.78
2019-02-05T21:35:34.477Z,25.79
2019-02-05T21:38:03.097Z,25.79
2019-02-05T21:40:31.845Z,25.78
2019-02-05T21:43:00.788Z,25.80
2019-02-05T21:45:29.499Z,25.81
2019-02-05T21:47:58.144Z,25.82
2019-02-05T21:50:26.799Z,25.80
2019-02-05T21:52:55.448Z,25.80
2019-02-05T21:55:24.312Z,25.80
2019-02-05T21:57:52.985Z,25.81
2019-02-05T22:00:26.562Z,25.79
2019-02-05T22:02:55.220Z,25.78
2019-02-05T22:05:24.128Z,25.79
2019-02-05T22:07:52.807Z,25.76
2019-02-05T22:10:21.857Z,25.74
2019-02-05T22:12:50.499Z,25.74
2019-02-05T22:15:19.593Z,25.72
2019-02-05T22:17:48.299Z,25.68
2019-02-05T22:20:18.863Z,25.66
2019-02-05T22:22:47.879Z,25.64
2019-02-05T22:25:21.879Z,25.64
2019-02-05T22:27:50.910Z,25.62
2019-02-05T22:30:21.669Z,25.59
2019-02-05T22:32:50.521Z,25.58
2019-02-05T22:35:19.526Z,25.55
2019-02-05T22:37:48.520Z,25.55
2019-02-05T22:40:19.217Z,25.54
2019-02-05T22:42:48.220Z,25.53
2019-02-05T22:45:17.105Z,25.40
2019-02-05T22:47:45.925Z,25.53
2019-02-05T22:50:19.729Z,25.51
2019-02-05T22:52:48.623Z,25.48
2019-02-05T22:55:17.314Z,25.46
2019-02-05T22:57:46.407Z,25.45
2019-02-05T23:00:48.222Z,25.42
2019-02-05T23:03:20.047Z,25.42
2019-02-05T23:06:19.105Z,25.40
2019-02-05T23:08:47.876Z,25.39
2019-02-05T23:12:16.568Z,25.38
2019-02-05T23:14:47.762Z,25.37
2019-02-05T23:17:16.551Z,25.35
2019-02-05T23:19:45.252Z,25.35
2019-02-05T23:22:14.004Z,25.33
2019-02-05T23:24:42.655Z,25.32
2019-02-05T23:27:11.380Z,25.29
2019-02-05T23:29:40.378Z,25.30
2019-02-05T23:32:09.143Z,25.29
2019-02-05T23:34:37.884Z,25.27
2019-02-05T23:37:06.926Z,25.26
2019-02-05T23:39:35.574Z,25.23
2019-02-05T23:42:04.756Z,25.22
2019-02-05T23:44:33.383Z,25.20
2019-02-05T23:47:02.100Z,25.18
2019-02-05T23:49:30.847Z,25.16
2019-02-05T23:51:59.508Z,25.16
2019-02-05T23:54:28.166Z,25.15
2019-02-05T23:56:56.808Z,25.15
2019-02-05T23:59:25.478Z,25.15
